createdAt,value
2018-06-19T00:02:20.077Z,80.50
2018-06-19T00:04:48.618Z,80.70
2018-06-19T00:07:17.143Z,80.60
2018-06-19T00:09:45.745Z,80.70
2018-06-19T00:14:42.837Z,81.50
2018-06-19T00:17:11.414Z,81.60
2018-06-19T00:19:46.146Z,81.50
2018-06-19T00:22:14.921Z,81.60
2018-06-19T00:24:43.822Z,82.30
2018-06-19T00:27:12.736Z,82.00
2018-06-19T00:29:41.627Z,81.90
2018-06-19T00:32:10.434Z,82.00
2018-06-19T00:34:38.968Z,82.40
2018-06-19T00:37:07.476Z,82.10
2018-06-19T00:39:36.016Z,81.60
2018-06-19T00:42:04.839Z,79.90
2018-06-19T00:44:38.992Z,78.40
2018-06-19T00:47:07.866Z,76.60
2018-06-19T00:49:36.740Z,74.70
2018-06-19T00:52:05.606Z,73.50
2018-06-19T00:54:34.470Z,72.80
2018-06-19T00:57:03.443Z,75.10
2018-06-19T00:59:32.276Z,76.10
2018-06-19T01:02:01.475Z,76.20
2018-06-19T01:04:30.360Z,77.50
2018-06-19T01:06:59.236Z,78.30
2018-06-19T01:09:28.120Z,79.60
2018-06-19T01:11:56.995Z,81.20
2018-06-19T01:14:25.858Z,82.00
2018-06-19T01:16:54.728Z,83.80
2018-06-19T01:19:23.643Z,84.10
2018-06-19T01:21:52.502Z,84.50
2018-06-19T01:24:21.480Z,85.20
2018-06-19T01:26:50.353Z,85.30
2018-06-19T01:29:19.210Z,84.90
2018-06-19T01:31:48.003Z,85.20
2018-06-19T01:34:16.550Z,85.60
2018-06-19T01:36:45.123Z,85.40
2018-06-19T01:39:13.666Z,85.70
2018-06-19T01:41:42.196Z,85.50
2018-06-19T01:44:10.726Z,85.10
2018-06-19T01:46:39.257Z,85.00
2018-06-19T01:49:07.781Z,84.80
2018-06-19T01:51:36.531Z,84.80
2018-06-19T01:54:05.432Z,84.80
2018-06-19T01:56:34.291Z,85.40
2018-06-19T01:59:03.154Z,82.30
2018-06-19T02:01:32.001Z,78.90
2018-06-19T02:04:00.863Z,79.90
2018-06-19T02:06:29.706Z,80.50
2018-06-19T02:08:58.643Z,81.90
2018-06-19T02:11:27.494Z,82.80
2018-06-19T02:13:56.356Z,83.80
2018-06-19T02:16:25.216Z,84.80
2018-06-19T02:18:54.088Z,86.00
2018-06-19T02:21:22.910Z,86.30
2018-06-19T02:23:51.775Z,86.60
2018-06-19T02:26:20.636Z,86.60
2018-06-19T02:28:49.483Z,86.80
2018-06-19T02:31:18.434Z,87.00
2018-06-19T02:33:47.321Z,86.50
2018-06-19T02:38:44.731Z,85.50
2018-06-19T02:41:13.350Z,85.40
2018-06-19T02:43:41.927Z,85.60
2018-06-19T02:46:10.464Z,85.10
2018-06-19T02:48:38.991Z,85.40
2018-06-19T02:51:07.748Z,86.00
2018-06-19T02:53:36.638Z,86.40
2018-06-19T02:56:05.492Z,86.90
2018-06-19T02:58:34.351Z,87.40
2018-06-19T03:01:03.067Z,84.50
2018-06-19T03:03:31.606Z,82.60
2018-06-19T03:06:00.106Z,83.20
2018-06-19T03:08:28.653Z,83.70
2018-06-19T03:10:57.418Z,84.90
2018-06-19T03:13:26.301Z,84.20
2018-06-19T03:15:55.172Z,84.70
2018-06-19T03:18:24.059Z,80.50
2018-06-19T03:20:52.733Z,79.30
2018-06-19T03:23:21.251Z,80.40
2018-06-19T03:25:49.780Z,80.80
2018-06-19T03:28:18.337Z,81.30
2018-06-19T03:30:46.876Z,81.40
2018-06-19T03:33:15.448Z,80.90
2018-06-19T03:35:44.293Z,82.30
2018-06-19T03:38:12.849Z,83.50
2018-06-19T03:40:41.438Z,84.60
2018-06-19T03:43:09.943Z,85.30
2018-06-19T03:45:38.508Z,85.50
2018-06-19T03:48:07.060Z,85.50
2018-06-19T03:50:35.566Z,85.60
2018-06-19T03:53:04.135Z,85.30
2018-06-19T03:55:32.701Z,85.60
2018-06-19T04:00:29.625Z,85.80
2018-06-19T04:02:58.155Z,85.30
2018-06-19T04:07:55.078Z,84.40
2018-06-19T04:10:23.659Z,82.90
2018-06-19T04:12:52.198Z,82.30
2018-06-19T04:15:20.741Z,81.50
2018-06-19T04:17:49.350Z,81.50
2018-06-19T04:20:17.903Z,79.80
2018-06-19T04:22:46.500Z,80.10
2018-06-19T04:25:15.097Z,79.80
2018-06-19T04:27:43.685Z,78.50
2018-06-19T04:30:12.489Z,77.50
2018-06-19T04:32:41.360Z,76.60
2018-06-19T04:35:10.245Z,75.90
2018-06-19T04:37:39.145Z,75.40
2018-06-19T04:40:07.816Z,75.30
2018-06-19T04:45:05.053Z,71.90
2018-06-19T04:47:33.649Z,69.20
2018-06-19T04:52:30.690Z,71.00
2018-06-19T04:54:59.327Z,71.50
2018-06-19T04:57:28.127Z,72.00
2018-06-19T04:59:56.867Z,71.60
2018-06-19T05:02:25.770Z,70.50
2018-06-19T05:04:54.708Z,71.90
2018-06-19T05:07:23.573Z,71.50
2018-06-19T05:09:52.259Z,71.60
2018-06-19T05:12:20.821Z,68.80
2018-06-19T05:14:49.421Z,67.60
2018-06-19T05:17:18.090Z,66.20
2018-06-19T05:22:15.733Z,64.80
2018-06-19T05:24:44.576Z,64.90
2018-06-19T05:27:13.525Z,64.10
2018-06-19T05:29:42.385Z,63.70
2018-06-19T05:32:11.376Z,62.70
2018-06-19T05:34:40.296Z,61.40
2018-06-19T05:37:09.175Z,60.90
2018-06-19T05:39:37.921Z,60.70
2018-06-19T05:42:06.734Z,60.40
2018-06-19T05:44:35.328Z,60.50
2018-06-19T05:47:04.075Z,60.10
2018-06-19T05:49:32.733Z,58.90
2018-06-19T05:54:29.733Z,59.40
2018-06-19T05:56:58.323Z,59.00
2018-06-19T05:59:27.143Z,59.30
2018-06-19T06:01:56.054Z,59.70
2018-06-19T06:06:53.556Z,59.30
2018-06-19T06:09:22.254Z,58.50
2018-06-19T06:11:50.781Z,57.80
2018-06-19T06:14:19.530Z,57.00
2018-06-19T06:16:48.114Z,55.50
2018-06-19T06:19:16.950Z,56.50
2018-06-19T06:24:14.573Z,57.20
2018-06-19T06:26:43.539Z,57.70
2018-06-19T06:29:12.276Z,58.30
2018-06-19T06:31:40.871Z,56.10
2018-06-19T06:34:09.466Z,55.90
2018-06-19T06:36:38.113Z,56.60
2018-06-19T06:39:08.164Z,55.00
2018-06-19T06:41:37.403Z,55.80
2018-06-19T06:44:06.483Z,55.50
2018-06-19T06:46:35.464Z,55.80
2018-06-19T06:49:04.151Z,54.30
2018-06-19T06:51:32.707Z,54.70
2018-06-19T06:54:01.301Z,53.90
2018-06-19T06:56:29.981Z,53.70
2018-06-19T06:58:58.546Z,54.10
2018-06-19T07:01:27.061Z,54.10
2018-06-19T07:03:55.685Z,54.20
2018-06-19T07:06:24.293Z,54.10
2018-06-19T07:08:52.845Z,54.10
2018-06-19T07:11:21.394Z,54.20
2018-06-19T07:13:50.017Z,52.40
2018-06-19T07:16:18.684Z,54.30
2018-06-19T07:18:47.232Z,53.20
2018-06-19T07:21:15.777Z,53.20
2018-06-19T07:23:44.371Z,52.80
2018-06-19T07:26:13.014Z,52.20
2018-06-19T07:28:41.864Z,51.90
2018-06-19T07:31:10.749Z,49.40
2018-06-19T07:33:39.641Z,45.30
2018-06-19T07:36:08.529Z,45.40
2018-06-19T07:38:37.236Z,46.80
2018-06-19T07:41:05.816Z,47.20
2018-06-19T07:43:34.431Z,46.70
2018-06-19T07:46:02.982Z,46.80
2018-06-19T07:48:31.591Z,47.10
2018-06-19T07:51:00.186Z,47.90
2018-06-19T07:53:29.009Z,45.00
2018-06-19T07:55:58.303Z,44.70
2018-06-19T07:58:26.893Z,44.20
2018-06-19T08:00:55.473Z,43.10
2018-06-19T08:03:24.021Z,42.60
2018-06-19T08:05:52.891Z,43.70
2018-06-19T08:08:21.686Z,41.60
2018-06-19T08:10:50.584Z,43.60
2018-06-19T08:13:19.481Z,43.20
2018-06-19T08:15:48.509Z,41.90
2018-06-19T08:18:17.421Z,40.20
2018-06-19T08:20:46.336Z,41.70
2018-06-19T08:25:43.862Z,41.30
2018-06-19T08:28:12.916Z,41.60
2018-06-19T08:30:41.982Z,40.70
2018-06-19T08:33:10.932Z,40.20
2018-06-19T08:35:39.531Z,43.20
2018-06-19T08:38:08.412Z,41.10
2018-06-19T08:40:37.343Z,38.80
2018-06-19T08:43:06.281Z,37.70
2018-06-19T08:45:35.196Z,39.10
2018-06-19T08:48:03.947Z,37.20
2018-06-19T08:50:32.514Z,38.70
2018-06-19T08:53:01.096Z,39.90
2018-06-19T08:55:29.696Z,39.30
2018-06-19T08:57:58.633Z,39.10
2018-06-19T09:00:27.657Z,38.80
2018-06-19T09:02:56.580Z,37.80
2018-06-19T09:05:25.508Z,35.30
2018-06-19T09:07:54.581Z,35.90
2018-06-19T09:10:23.254Z,34.60
2018-06-19T09:12:51.893Z,34.10
2018-06-19T09:15:20.745Z,34.80
2018-06-19T09:17:49.386Z,35.80
2018-06-19T09:20:18.013Z,35.10
2018-06-19T09:22:46.604Z,35.10
2018-06-19T09:25:15.199Z,35.80
2018-06-19T09:27:43.967Z,34.30
2018-06-19T09:30:12.951Z,35.60
2018-06-19T09:32:41.951Z,34.00
2018-06-19T09:35:11.019Z,33.40
2018-06-19T09:37:39.764Z,33.80
2018-06-19T09:40:08.380Z,34.60
2018-06-19T09:42:37.431Z,33.90
2018-06-19T09:45:06.110Z,33.70
2018-06-19T09:47:35.484Z,33.80
2018-06-19T09:50:04.378Z,34.40
2018-06-19T09:52:33.243Z,34.70
2018-06-19T09:55:02.101Z,34.50
2018-06-19T09:57:31.109Z,33.80
2018-06-19T10:00:00.118Z,32.90
2018-06-19T10:02:29.139Z,32.80
2018-06-19T10:04:58.146Z,31.50
2018-06-19T10:07:27.123Z,32.20
2018-06-19T10:09:56.135Z,32.50
2018-06-19T10:12:25.106Z,30.70
2018-06-19T10:14:54.213Z,30.70
2018-06-19T10:17:23.434Z,31.10
2018-06-19T10:19:52.386Z,32.40
2018-06-19T10:22:21.448Z,33.30
2018-06-19T10:24:50.439Z,33.40
2018-06-19T10:27:19.096Z,34.10
2018-06-19T10:29:47.783Z,33.30
2018-06-19T10:32:16.824Z,33.70
2018-06-19T10:34:45.558Z,32.50
2018-06-19T10:37:14.365Z,30.00
2018-06-19T10:42:11.960Z,31.30
2018-06-19T10:44:40.866Z,31.30
2018-06-19T10:47:09.571Z,32.10
2018-06-19T10:49:38.359Z,34.30
2018-06-19T10:52:06.896Z,33.00
2018-06-19T10:54:35.524Z,33.30
2018-06-19T10:57:04.549Z,34.30
2018-06-19T10:59:33.631Z,32.20
2018-06-19T11:02:02.562Z,33.10
2018-06-19T11:04:31.449Z,31.80
2018-06-19T11:07:00.321Z,32.60
2018-06-19T11:09:29.486Z,31.40
2018-06-19T11:11:58.390Z,31.70
2018-06-19T11:14:28.546Z,30.60
2018-06-19T11:16:57.211Z,31.10
2018-06-19T11:19:25.845Z,31.40
2018-06-19T11:21:54.366Z,31.40
2018-06-19T11:24:22.966Z,31.00
2018-06-19T11:26:51.841Z,30.00
2018-06-19T11:29:21.174Z,30.60
2018-06-19T11:31:50.201Z,31.20
2018-06-19T11:34:19.153Z,30.00
2018-06-19T11:39:16.273Z,30.40
2018-06-19T11:41:44.894Z,30.10
2018-06-19T11:44:13.663Z,30.20
2018-06-19T11:46:43.121Z,29.90
2018-06-19T11:49:12.860Z,31.80
2018-06-19T11:51:41.884Z,32.60
2018-06-19T11:54:11.807Z,33.00
2018-06-19T11:56:40.722Z,31.10
2018-06-19T11:59:09.411Z,30.90
2018-06-19T12:01:38.101Z,30.40
2018-06-19T12:04:07.234Z,31.40
2018-06-19T12:06:36.087Z,30.80
2018-06-19T12:09:06.354Z,31.10
2018-06-19T12:11:35.142Z,30.30
2018-06-19T12:14:04.103Z,29.60
2018-06-19T12:16:33.347Z,28.90
2018-06-19T12:19:02.497Z,28.50
2018-06-19T12:21:31.474Z,28.00
2018-06-19T12:24:00.725Z,29.40
2018-06-19T12:26:29.874Z,29.70
2018-06-19T12:28:58.963Z,30.60
2018-06-19T12:31:27.986Z,30.00
2018-06-19T12:33:57.131Z,30.00
2018-06-19T12:36:26.277Z,29.30
2018-06-19T12:38:55.359Z,29.10
2018-06-19T12:41:39.861Z,28.80
2018-06-19T12:44:08.981Z,28.00
2018-06-19T12:46:38.749Z,29.20
2018-06-19T12:49:08.276Z,30.80
2018-06-19T12:52:02.881Z,29.70
2018-06-19T12:56:43.842Z,28.40
2018-06-19T12:59:13.046Z,28.70
2018-06-19T13:01:41.980Z,27.80
2018-06-19T13:04:27.610Z,27.90
2018-06-19T13:06:56.309Z,27.70
2018-06-19T13:09:24.899Z,28.00
2018-06-19T13:11:53.610Z,28.40
2018-06-19T13:14:39.132Z,28.80
2018-06-19T13:17:24.811Z,29.80
2018-06-19T13:20:10.362Z,29.20
2018-06-19T13:22:39.336Z,29.30
2018-06-19T13:25:08.321Z,28.30
2018-06-19T13:27:37.311Z,28.10
2018-06-19T13:30:23.173Z,26.90
2018-06-19T13:32:52.084Z,28.10
2018-06-19T13:35:21.048Z,27.60
2018-06-19T13:37:50.146Z,28.20
2018-06-19T13:42:37.741Z,28.80
2018-06-19T13:45:07.820Z,28.50
2018-06-19T13:47:36.567Z,29.00
2018-06-19T13:50:05.144Z,28.80
2018-06-19T13:52:33.809Z,28.70
2018-06-19T13:57:30.696Z,29.40
2018-06-19T14:00:00.674Z,28.50
2018-06-19T14:02:29.303Z,29.20
2018-06-19T14:04:58.108Z,28.30
2018-06-19T14:07:27.761Z,28.80
2018-06-19T14:10:20.256Z,28.70
2018-06-19T14:12:52.493Z,29.40
2018-06-19T14:15:22.044Z,29.50
2018-06-19T14:17:51.072Z,29.20
2018-06-19T14:20:20.031Z,30.00
2018-06-19T14:22:49.128Z,29.90
2018-06-19T14:25:18.521Z,30.60
2018-06-19T14:27:47.436Z,31.40
2018-06-19T14:30:16.012Z,30.30
2018-06-19T14:32:45.437Z,30.50
2018-06-19T14:35:14.119Z,30.30
2018-06-19T14:37:43.312Z,30.90
2018-06-19T14:40:12.609Z,29.70
2018-06-19T14:42:41.583Z,30.00
2018-06-19T14:45:10.976Z,30.30
2018-06-19T14:47:39.847Z,30.30
2018-06-19T14:50:08.524Z,30.50
2018-06-19T14:52:37.265Z,29.90
2018-06-19T14:55:06.954Z,30.00
2018-06-19T14:57:35.586Z,30.30
2018-06-19T15:00:05.264Z,29.80
2018-06-19T15:02:33.874Z,29.30
2018-06-19T15:05:02.491Z,29.40
2018-06-19T15:07:53.196Z,29.40
2018-06-19T15:10:22.619Z,28.90
2018-06-19T15:12:51.534Z,29.90
2018-06-19T15:17:57.595Z,30.00
2018-06-19T15:20:27.121Z,29.60
2018-06-19T15:22:55.736Z,30.10
2018-06-19T15:25:24.361Z,30.80
2018-06-19T15:27:53.288Z,30.60
2018-06-19T15:30:22.348Z,30.10
2018-06-19T15:32:51.231Z,30.40
2018-06-19T15:35:20.303Z,30.00
2018-06-19T15:37:49.230Z,29.60
2018-06-19T15:40:18.209Z,30.30
2018-06-19T15:42:47.225Z,30.10
2018-06-19T15:45:16.166Z,30.60
2018-06-19T15:47:45.348Z,30.40
2018-06-19T15:50:14.016Z,31.20
2018-06-19T15:52:43.598Z,31.10
2018-06-19T15:55:12.312Z,30.10
2018-06-19T15:57:41.181Z,31.40
2018-06-19T16:00:10.293Z,31.30
2018-06-19T16:02:39.275Z,31.80
2018-06-19T16:05:08.274Z,31.00
2018-06-19T16:07:42.093Z,31.20
2018-06-19T16:10:11.241Z,31.10
2018-06-19T16:12:40.203Z,31.30
2018-06-19T16:15:10.168Z,31.80
2018-06-19T16:17:39.147Z,32.10
2018-06-19T16:20:08.266Z,32.00
2018-06-19T16:22:37.242Z,32.80
2018-06-19T16:25:06.241Z,33.30
2018-06-19T16:27:35.234Z,33.20
2018-06-19T16:30:04.366Z,33.20
2018-06-19T16:32:33.271Z,33.60
2018-06-19T16:35:02.217Z,34.20
2018-06-19T16:37:31.131Z,34.30
2018-06-19T16:40:00.017Z,34.10
2018-06-19T16:42:28.940Z,33.90
2018-06-19T16:44:57.848Z,34.50
2018-06-19T16:47:26.664Z,34.00
2018-06-19T16:49:55.344Z,34.60
2018-06-19T16:52:24.062Z,34.30
2018-06-19T16:54:52.794Z,33.70
2018-06-19T16:57:21.431Z,35.10
2018-06-19T16:59:50.268Z,35.80
2018-06-19T17:02:18.960Z,36.10
2018-06-19T17:04:47.596Z,36.60
2018-06-19T17:07:16.261Z,37.00
2018-06-19T17:09:44.886Z,36.80
2018-06-19T17:12:13.448Z,37.60
2018-06-19T17:14:42.013Z,38.30
2018-06-19T17:17:10.654Z,38.80
2018-06-19T17:19:39.216Z,39.60
2018-06-19T17:22:07.760Z,40.20
2018-06-19T17:24:36.326Z,41.20
2018-06-19T17:27:05.076Z,42.00
2018-06-19T17:29:34.030Z,41.00
2018-06-19T17:32:02.894Z,41.40
2018-06-19T17:34:31.808Z,40.40
2018-06-19T17:37:00.533Z,40.50
2018-06-19T17:39:29.123Z,42.00
2018-06-19T17:41:57.699Z,40.90
2018-06-19T17:44:26.334Z,41.10
2018-06-19T17:46:55.178Z,41.10
2018-06-19T17:49:24.600Z,40.90
2018-06-19T17:51:53.176Z,41.40
2018-06-19T17:54:21.743Z,41.60
2018-06-19T17:56:50.576Z,41.90
2018-06-19T17:59:19.434Z,41.00
2018-06-19T18:01:48.503Z,41.10
2018-06-19T18:04:17.626Z,41.60
2018-06-19T18:06:46.518Z,41.90
2018-06-19T18:09:15.526Z,40.10
2018-06-19T18:11:44.504Z,40.00
2018-06-19T18:14:13.421Z,40.10
2018-06-19T18:16:42.956Z,40.00
2018-06-19T18:19:11.904Z,40.20
2018-06-19T18:21:40.920Z,40.50
2018-06-19T18:24:09.997Z,39.40
2018-06-19T18:26:39.425Z,39.10
2018-06-19T18:29:08.533Z,39.40
2018-06-19T18:31:37.504Z,39.90
2018-06-19T18:34:06.595Z,41.90
2018-06-19T18:36:35.507Z,42.40
2018-06-19T18:39:06.971Z,43.20
2018-06-19T18:41:36.006Z,43.60
2018-06-19T18:44:05.051Z,43.70
2018-06-19T18:46:34.121Z,43.80
2018-06-19T18:49:02.760Z,43.90
2018-06-19T18:51:31.329Z,42.10
2018-06-19T18:54:00.069Z,42.60
2018-06-19T18:56:28.889Z,43.20
2018-06-19T18:58:57.801Z,42.30
2018-06-19T19:01:26.760Z,42.60
2018-06-19T19:03:55.817Z,42.90
2018-06-19T19:06:24.933Z,43.10
2018-06-19T19:08:54.175Z,44.00
2018-06-19T19:11:23.226Z,43.90
2018-06-19T19:13:52.261Z,44.40
2018-06-19T19:17:27.403Z,45.00
2018-06-19T19:19:56.193Z,44.30
2018-06-19T19:22:24.857Z,45.40
2018-06-19T19:24:53.561Z,46.80
2018-06-19T19:27:27.691Z,47.10
2018-06-19T19:29:56.349Z,47.40
2018-06-19T19:32:25.414Z,48.10
2018-06-19T19:34:54.049Z,48.60
2018-06-19T19:37:28.563Z,50.00
2018-06-19T19:39:57.463Z,49.60
2018-06-19T19:42:26.459Z,49.80
2018-06-19T19:44:55.443Z,50.90
2018-06-19T19:47:30.244Z,50.90
2018-06-19T19:49:59.163Z,51.40
2018-06-19T19:52:28.241Z,51.90
2018-06-19T19:54:57.322Z,51.60
2018-06-19T19:57:32.716Z,51.60
2018-06-19T20:00:01.436Z,51.60
2018-06-19T20:02:30.157Z,51.70
2018-06-19T20:04:59.074Z,51.30
2018-06-19T20:07:27.883Z,51.10
2018-06-19T20:09:56.596Z,51.30
2018-06-19T20:12:25.216Z,51.20
2018-06-19T20:14:54.148Z,51.40
2018-06-19T20:17:23.079Z,51.40
2018-06-19T20:19:51.836Z,51.50
2018-06-19T20:22:20.621Z,51.70
2018-06-19T20:24:49.238Z,51.20
2018-06-19T20:27:17.881Z,51.40
2018-06-19T20:29:46.964Z,51.70
2018-06-19T20:32:16.869Z,52.70
2018-06-19T20:34:46.263Z,52.50
2018-06-19T20:37:15.266Z,52.80
2018-06-19T20:39:44.168Z,51.90
2018-06-19T20:44:41.864Z,53.10
2018-06-19T20:49:38.924Z,53.30
2018-06-19T20:52:08.602Z,52.50
2018-06-19T20:54:37.454Z,52.50
2018-06-19T20:57:06.224Z,52.50
2018-06-19T20:59:35.079Z,53.90
2018-06-19T21:02:03.859Z,53.60
2018-06-19T21:04:32.503Z,53.70
2018-06-19T21:07:01.121Z,53.30
2018-06-19T21:09:30.069Z,53.40
2018-06-19T21:11:59.164Z,53.70
2018-06-19T21:14:28.648Z,53.90
2018-06-19T21:16:57.687Z,54.60
2018-06-19T21:19:26.496Z,54.90
2018-06-19T21:21:55.406Z,55.30
2018-06-19T21:24:24.074Z,55.00
2018-06-19T21:26:52.794Z,52.30
2018-06-19T21:29:21.524Z,52.30
2018-06-19T21:31:50.534Z,53.20
2018-06-19T21:34:30.378Z,53.40
2018-06-19T21:36:59.544Z,52.50
2018-06-19T21:39:30.867Z,53.00
2018-06-19T21:42:00.112Z,52.10
2018-06-19T21:44:29.025Z,52.10
2018-06-19T21:50:13.461Z,52.80
2018-06-19T21:52:42.136Z,52.90
2018-06-19T21:55:10.675Z,53.50
2018-06-19T21:57:39.615Z,53.70
2018-06-19T22:00:08.561Z,53.80
2018-06-19T22:02:37.403Z,54.30
2018-06-19T22:05:06.298Z,54.40
2018-06-19T22:07:35.212Z,54.60
2018-06-19T22:10:04.245Z,54.40
2018-06-19T22:12:33.329Z,55.50
2018-06-19T22:15:02.264Z,55.20
2018-06-19T22:17:31.358Z,55.60
2018-06-19T22:20:00.329Z,56.20
2018-06-19T22:22:29.266Z,57.10
2018-06-19T22:24:58.211Z,57.60
2018-06-19T22:27:27.093Z,58.00
2018-06-19T22:29:56.041Z,58.80
2018-06-19T22:32:25.053Z,59.20
2018-06-19T22:34:53.973Z,59.50
2018-06-19T22:37:23.043Z,60.10
2018-06-19T22:39:51.954Z,60.60
2018-06-19T22:42:20.908Z,60.70
2018-06-19T22:44:49.808Z,61.10
2018-06-19T22:47:18.723Z,61.80
2018-06-19T22:49:47.736Z,62.30
2018-06-19T22:52:16.660Z,63.00
2018-06-19T22:54:46.309Z,63.60
2018-06-19T22:57:14.986Z,64.10
2018-06-19T22:59:43.563Z,64.30
2018-06-19T23:02:12.483Z,63.70
2018-06-19T23:04:41.545Z,64.00
2018-06-19T23:07:10.079Z,63.80
2018-06-19T23:09:38.614Z,63.80
2018-06-19T23:12:07.131Z,64.00
2018-06-19T23:14:35.673Z,63.70
2018-06-19T23:17:04.493Z,64.10
2018-06-19T23:19:33.401Z,64.50
2018-06-19T23:22:02.328Z,64.30
2018-06-19T23:24:31.263Z,64.20
2018-06-19T23:26:59.946Z,64.10
2018-06-19T23:29:28.628Z,64.00
2018-06-19T23:31:57.280Z,64.00
2018-06-19T23:34:25.909Z,64.30
2018-06-19T23:36:54.528Z,64.80
2018-06-19T23:39:23.165Z,66.00
2018-06-19T23:41:51.786Z,66.00
2018-06-19T23:44:20.803Z,66.00
2018-06-19T23:47:19.100Z,67.60
2018-06-19T23:49:48.056Z,69.20
2018-06-19T23:52:17.081Z,68.80
2018-06-19T23:54:46.026Z,68.60
2018-06-19T23:57:14.685Z,68.60
2018-06-19T23:59:43.885Z,68.10
